createdAt,value
2022-10-17T00:00:08.326Z,17.50
2022-10-17T00:01:10.206Z,17.60
2022-10-17T00:02:14.754Z,17.50
2022-10-17T00:03:16.764Z,17.50
2022-10-17T00:04:19.817Z,17.50
2022-10-17T00:05:21.568Z,17.50
2022-10-17T00:06:24.765Z,17.50
2022-10-17T00:07:26.748Z,17.50
2022-10-17T00:08:28.660Z,17.60
2022-10-17T00:09:30.332Z,17.40
2022-10-17T00:10:32.208Z,17.40
2022-10-17T00:11:36.346Z,17.30
2022-10-17T00:12:38.211Z,17.30
2022-10-17T00:13:39.945Z,17.30
2022-10-17T00:14:41.609Z,17.40
2022-10-17T00:15:44.894Z,17.30
2022-10-17T00:16:46.507Z,17.30
2022-10-17T00:17:48.249Z,17.30
2022-10-17T00:18:50.233Z,17.30
2022-10-17T00:19:52.350Z,17.50
2022-10-17T00:20:54.017Z,17.30
2022-10-17T00:21:55.694Z,17.30
2022-10-17T00:22:57.837Z,17.30
2022-10-17T00:24:00.557Z,17.30
2022-10-17T00:25:04.065Z,17.30
2022-10-17T00:26:06.504Z,17.30
2022-10-17T00:27:08.449Z,17.30
2022-10-17T00:28:11.617Z,17.30
2022-10-17T00:29:13.574Z,17.30
2022-10-17T00:30:16.952Z,17.30
2022-10-17T00:31:20.133Z,17.30
2022-10-17T00:32:22.589Z,17.40
2022-10-17T00:33:24.381Z,17.30
2022-10-17T00:34:26.227Z,17.30
2022-10-17T00:35:27.923Z,17.30
2022-10-17T00:36:30.236Z,17.30
2022-10-17T00:37:35.623Z,17.30
2022-10-17T00:38:37.950Z,17.30
2022-10-17T00:39:39.677Z,17.30
2022-10-17T00:40:41.414Z,17.30
2022-10-17T00:41:43.228Z,17.30
2022-10-17T00:42:44.915Z,17.20
2022-10-17T00:43:57.801Z,17.20
2022-10-17T00:45:14.677Z,17.20
2022-10-17T00:46:16.328Z,17.20
2022-10-17T00:47:21.952Z,17.30
2022-10-17T00:48:25.725Z,17.20
2022-10-17T00:49:32.428Z,17.20
2022-10-17T00:50:36.101Z,17.20
2022-10-17T00:51:45.522Z,17.20
2022-10-17T00:52:48.859Z,17.20
2022-10-17T00:53:51.838Z,17.10
2022-10-17T00:55:04.228Z,17.20
2022-10-17T00:56:06.937Z,17.10
2022-10-17T00:57:08.707Z,17.10
2022-10-17T00:58:10.704Z,17.20
2022-10-17T00:59:14.821Z,17.10
2022-10-17T01:00:17.555Z,17.20
2022-10-17T01:01:19.470Z,17.20
2022-10-17T01:02:22.466Z,17.10
2022-10-17T01:03:24.422Z,17.10
2022-10-17T01:04:26.263Z,17.10
2022-10-17T01:05:28.693Z,17.10
2022-10-17T01:06:30.362Z,17.10
2022-10-17T01:07:34.942Z,17.20
2022-10-17T01:08:40.898Z,17.10
2022-10-17T01:09:45.557Z,17.10
2022-10-17T01:11:38.266Z,17.10
2022-10-17T01:12:57.400Z,17.00
2022-10-17T01:14:09.259Z,17.00
2022-10-17T01:15:38.951Z,17.00
2022-10-17T01:17:01.563Z,17.00
2022-10-17T01:18:32.812Z,17.00
2022-10-17T01:19:57.387Z,16.90
2022-10-17T01:21:22.854Z,16.90
2022-10-17T01:22:32.096Z,16.90
2022-10-17T01:24:12.759Z,16.90
2022-10-17T01:25:23.922Z,16.80
2022-10-17T01:27:09.887Z,16.90
2022-10-17T01:28:40.234Z,16.90
2022-10-17T01:30:00.729Z,16.90
2022-10-17T01:31:10.930Z,16.80
2022-10-17T01:32:23.701Z,16.80
2022-10-17T01:33:45.680Z,16.90
2022-10-17T01:35:00.094Z,16.80
2022-10-17T01:36:28.863Z,16.80
2022-10-17T01:37:39.968Z,16.80
2022-10-17T01:38:49.615Z,16.70
2022-10-17T01:39:57.865Z,16.80
2022-10-17T01:41:17.937Z,16.80
2022-10-17T01:42:23.296Z,16.80
2022-10-17T01:43:44.054Z,16.80
2022-10-17T01:45:16.929Z,16.80
2022-10-17T01:46:34.853Z,16.80
2022-10-17T01:47:36.595Z,16.80
2022-10-17T01:48:41.034Z,16.70
2022-10-17T01:49:45.450Z,16.70
2022-10-17T01:51:06.398Z,16.70
2022-10-17T01:52:15.272Z,16.70
2022-10-17T01:53:24.539Z,16.70
2022-10-17T01:54:32.949Z,16.70
2022-10-17T01:55:41.623Z,16.70
2022-10-17T01:56:48.413Z,16.70
2022-10-17T01:57:54.772Z,16.70
2022-10-17T01:59:01.674Z,16.70
2022-10-17T02:00:08.160Z,16.70
2022-10-17T02:01:12.248Z,16.70
2022-10-17T02:02:15.169Z,16.70
2022-10-17T02:03:20.830Z,16.70
2022-10-17T02:04:22.938Z,16.70
2022-10-17T02:05:34.105Z,16.80
2022-10-17T02:06:39.159Z,16.70
2022-10-17T02:07:42.122Z,16.70
2022-10-17T02:08:46.778Z,16.70
2022-10-17T02:09:49.668Z,16.70
2022-10-17T02:11:24.880Z,16.70
2022-10-17T02:12:54.385Z,16.70
2022-10-17T02:14:21.494Z,16.70
2022-10-17T02:15:35.828Z,16.70
2022-10-17T02:16:53.228Z,16.70
2022-10-17T02:18:21.049Z,16.60
2022-10-17T02:19:34.229Z,16.70
2022-10-17T02:20:40.386Z,16.60
2022-10-17T02:21:51.941Z,16.60
2022-10-17T02:23:13.966Z,16.60
2022-10-17T02:24:45.573Z,16.60
2022-10-17T02:25:59.015Z,16.60
2022-10-17T02:27:25.847Z,16.60
2022-10-17T02:28:34.386Z,16.60
2022-10-17T02:29:49.856Z,16.60
2022-10-17T02:30:57.357Z,16.60
2022-10-17T02:32:02.704Z,16.60
2022-10-17T02:33:10.481Z,16.60
2022-10-17T02:34:42.794Z,16.50
2022-10-17T02:35:49.722Z,16.50
2022-10-17T02:36:55.063Z,16.50
2022-10-17T02:37:58.328Z,16.50
2022-10-17T02:39:03.047Z,16.50
2022-10-17T02:40:08.834Z,16.50
2022-10-17T02:41:13.840Z,16.50
2022-10-17T02:42:18.491Z,16.50
2022-10-17T02:43:21.730Z,16.50
2022-10-17T02:44:24.945Z,16.50
2022-10-17T02:45:28.622Z,16.50
2022-10-17T02:46:31.906Z,16.50
2022-10-17T02:47:43.248Z,16.50
2022-10-17T02:48:53.160Z,16.50
2022-10-17T02:49:58.573Z,16.50
2022-10-17T02:51:28.159Z,16.50
2022-10-17T02:52:38.078Z,16.50
2022-10-17T02:53:57.069Z,16.50
2022-10-17T02:55:24.573Z,16.50
2022-10-17T02:56:29.308Z,16.50
2022-10-17T02:57:36.856Z,16.50
2022-10-17T02:58:39.797Z,16.50
2022-10-17T02:59:45.318Z,16.50
2022-10-17T03:00:47.858Z,16.40
2022-10-17T03:01:51.533Z,16.50
2022-10-17T03:02:54.432Z,16.50
2022-10-17T03:04:25.656Z,16.50
2022-10-17T03:05:29.604Z,16.50
2022-10-17T03:06:31.296Z,16.40
2022-10-17T03:07:32.888Z,16.50
2022-10-17T03:08:35.900Z,16.40
2022-10-17T03:09:37.579Z,16.40
2022-10-17T03:10:39.226Z,16.40
2022-10-17T03:11:41.029Z,16.50
2022-10-17T03:12:42.753Z,16.40
2022-10-17T03:13:45.705Z,16.40
2022-10-17T03:14:47.488Z,16.40
2022-10-17T03:15:49.175Z,16.40
2022-10-17T03:16:50.770Z,16.40
2022-10-17T03:17:52.408Z,16.40
2022-10-17T03:18:54.120Z,16.40
2022-10-17T03:19:57.335Z,16.40
2022-10-17T03:20:59.047Z,16.40
2022-10-17T03:22:01.065Z,16.40
2022-10-17T03:23:02.983Z,16.40
2022-10-17T03:24:06.294Z,16.40
2022-10-17T03:25:08.178Z,16.40
2022-10-17T03:26:09.980Z,16.30
2022-10-17T03:27:12.330Z,16.30
2022-10-17T03:28:16.068Z,16.40
2022-10-17T03:29:18.970Z,16.40
2022-10-17T03:30:21.030Z,16.30
2022-10-17T03:31:23.529Z,16.40
2022-10-17T03:32:25.236Z,16.40
2022-10-17T03:33:27.024Z,16.40
2022-10-17T03:34:28.650Z,16.40
2022-10-17T03:35:30.435Z,16.30
2022-10-17T03:36:33.224Z,16.30
2022-10-17T03:37:34.875Z,16.30
2022-10-17T03:38:37.046Z,16.30
2022-10-17T03:39:39.049Z,16.20
2022-10-17T03:40:42.575Z,16.20
2022-10-17T03:41:44.339Z,16.20
2022-10-17T03:42:46.965Z,16.20
2022-10-17T03:43:48.608Z,16.20
2022-10-17T03:44:50.214Z,16.20
2022-10-17T03:45:51.944Z,16.20
2022-10-17T03:46:53.942Z,16.20
2022-10-17T03:47:55.566Z,16.20
2022-10-17T03:48:57.173Z,16.20
2022-10-17T03:49:58.886Z,16.20
2022-10-17T03:51:05.436Z,16.20
2022-10-17T03:52:11.006Z,16.20
2022-10-17T03:53:12.650Z,16.20
2022-10-17T03:54:15.793Z,16.20
2022-10-17T03:55:17.700Z,16.20
2022-10-17T03:56:24.364Z,16.20
2022-10-17T03:57:26.021Z,16.20
2022-10-17T03:58:28.745Z,16.20
2022-10-17T03:59:30.576Z,16.20
2022-10-17T04:00:32.331Z,16.20
2022-10-17T04:01:34.079Z,16.20
2022-10-17T04:02:35.801Z,16.10
2022-10-17T04:03:37.911Z,16.20
2022-10-17T04:04:39.661Z,16.10
2022-10-17T04:05:41.484Z,16.30
2022-10-17T04:06:43.171Z,16.10
2022-10-17T04:07:44.924Z,16.10
2022-10-17T04:08:47.083Z,16.10
2022-10-17T04:09:48.720Z,16.10
2022-10-17T04:10:52.530Z,16.10
2022-10-17T04:11:54.205Z,16.10
2022-10-17T04:12:55.850Z,16.10
2022-10-17T04:13:59.846Z,16.10
2022-10-17T04:15:01.505Z,16.10
2022-10-17T04:16:06.730Z,16.10
2022-10-17T04:17:08.454Z,16.20
2022-10-17T04:18:10.124Z,16.20
2022-10-17T04:19:13.495Z,16.10
2022-10-17T04:20:15.665Z,16.20
2022-10-17T04:21:18.313Z,16.20
2022-10-17T04:22:19.930Z,16.20
2022-10-17T04:23:21.621Z,16.30
2022-10-17T04:24:23.376Z,16.20
2022-10-17T04:25:25.220Z,16.20
2022-10-17T04:26:27.546Z,16.20
2022-10-17T04:27:29.209Z,16.30
2022-10-17T04:28:32.133Z,16.30
2022-10-17T04:29:34.233Z,16.30
2022-10-17T04:30:36.477Z,16.30
2022-10-17T04:31:38.682Z,16.30
2022-10-17T04:32:40.449Z,16.20
2022-10-17T04:33:46.970Z,16.20
2022-10-17T04:34:50.075Z,16.20
2022-10-17T04:36:03.040Z,16.20
2022-10-17T04:37:04.683Z,16.20
2022-10-17T04:38:06.443Z,16.20
2022-10-17T04:39:08.549Z,16.20
2022-10-17T04:40:10.816Z,16.20
2022-10-17T04:41:15.359Z,16.20
2022-10-17T04:42:17.033Z,16.20
2022-10-17T04:43:19.092Z,16.20
2022-10-17T04:44:20.861Z,16.20
2022-10-17T04:45:22.493Z,16.40
2022-10-17T04:46:24.454Z,16.40
2022-10-17T04:47:26.150Z,16.20
2022-10-17T04:48:28.935Z,16.30
2022-10-17T04:49:31.832Z,16.30
2022-10-17T04:50:33.686Z,16.30
2022-10-17T04:51:35.793Z,16.30
2022-10-17T04:52:37.617Z,16.30
2022-10-17T04:53:40.822Z,16.30
2022-10-17T04:54:42.550Z,16.30
2022-10-17T04:55:44.212Z,16.30
2022-10-17T04:56:48.185Z,16.30
2022-10-17T04:57:49.970Z,16.30
2022-10-17T04:58:52.064Z,16.30
2022-10-17T04:59:55.165Z,16.20
2022-10-17T05:00:56.936Z,16.20
2022-10-17T05:01:58.613Z,16.20
2022-10-17T05:03:02.931Z,16.20
2022-10-17T05:04:04.821Z,16.20
2022-10-17T05:05:06.998Z,16.20
2022-10-17T05:06:14.345Z,16.20
2022-10-17T05:07:15.993Z,16.20
2022-10-17T05:08:17.695Z,16.20
2022-10-17T05:09:19.349Z,16.10
2022-10-17T05:10:21.307Z,16.10
2022-10-17T05:11:25.631Z,16.10
2022-10-17T05:12:27.855Z,16.10
2022-10-17T05:13:30.837Z,16.10
2022-10-17T05:14:32.679Z,16.10
2022-10-17T05:15:35.806Z,16.10
2022-10-17T05:16:40.180Z,16.10
2022-10-17T05:17:42.424Z,16.10
2022-10-17T05:18:44.051Z,16.10
2022-10-17T05:19:45.964Z,16.10
2022-10-17T05:20:47.635Z,16.10
2022-10-17T05:21:49.510Z,16.20
2022-10-17T05:22:51.232Z,16.20
2022-10-17T05:23:57.908Z,16.20
2022-10-17T05:25:00.661Z,16.20
2022-10-17T05:26:02.747Z,16.20
2022-10-17T05:27:04.720Z,16.30
2022-10-17T05:28:06.388Z,16.30
2022-10-17T05:29:08.223Z,16.30
2022-10-17T05:30:10.667Z,16.30
2022-10-17T05:31:12.899Z,16.30
2022-10-17T05:32:16.473Z,16.30
2022-10-17T05:33:18.483Z,16.30
2022-10-17T05:34:20.402Z,16.30
2022-10-17T05:35:22.721Z,16.30
2022-10-17T05:36:25.717Z,16.30
2022-10-17T05:37:30.627Z,16.30
2022-10-17T05:38:32.796Z,16.30
2022-10-17T05:39:35.942Z,16.30
2022-10-17T05:40:41.574Z,16.30
2022-10-17T05:41:47.966Z,16.30
2022-10-17T05:42:51.948Z,16.30
2022-10-17T05:43:54.037Z,16.30
2022-10-17T05:44:55.902Z,16.20
2022-10-17T05:45:59.000Z,16.20
2022-10-17T05:47:00.650Z,16.20
2022-10-17T05:48:03.906Z,16.20
2022-10-17T05:49:14.768Z,16.20
2022-10-17T05:50:29.177Z,16.20
2022-10-17T05:51:34.089Z,16.20
2022-10-17T05:52:38.164Z,16.20
2022-10-17T05:53:41.388Z,16.20
2022-10-17T05:54:43.139Z,16.20
2022-10-17T05:55:44.850Z,16.20
2022-10-17T05:56:53.279Z,16.20
2022-10-17T05:57:56.065Z,16.20
2022-10-17T05:59:01.097Z,16.20
2022-10-17T06:00:03.896Z,16.20
2022-10-17T06:01:10.700Z,16.20
2022-10-17T06:02:14.896Z,16.20
2022-10-17T06:03:16.658Z,16.10
2022-10-17T06:04:18.872Z,16.20
2022-10-17T06:05:22.239Z,16.10
2022-10-17T06:06:23.912Z,16.10
2022-10-17T06:07:28.646Z,16.10
2022-10-17T06:08:30.541Z,16.10
2022-10-17T06:09:32.181Z,16.10
2022-10-17T06:10:34.813Z,16.20
2022-10-17T06:11:36.688Z,16.10
2022-10-17T06:12:41.622Z,16.20
2022-10-17T06:13:43.527Z,16.20
2022-10-17T06:14:46.175Z,16.20
2022-10-17T06:15:50.781Z,16.20
2022-10-17T06:16:53.599Z,16.20
2022-10-17T06:17:55.235Z,16.20
2022-10-17T06:18:56.974Z,16.30
2022-10-17T06:19:58.872Z,16.20
2022-10-17T06:21:10.093Z,16.20
2022-10-17T06:22:11.822Z,16.20
2022-10-17T06:23:15.527Z,16.20
2022-10-17T06:24:17.361Z,16.20
2022-10-17T06:25:19.133Z,16.30
2022-10-17T06:26:25.017Z,16.20
2022-10-17T06:27:26.676Z,16.20
2022-10-17T06:28:32.266Z,16.20
2022-10-17T06:29:39.021Z,16.20
2022-10-17T06:30:46.325Z,16.30
2022-10-17T06:31:48.129Z,16.20
2022-10-17T06:32:51.149Z,16.20
2022-10-17T06:33:52.791Z,16.30
2022-10-17T06:34:54.440Z,16.20
2022-10-17T06:35:57.002Z,16.20
2022-10-17T06:36:59.067Z,16.20
2022-10-17T06:38:00.702Z,16.20
2022-10-17T06:39:02.462Z,16.20
2022-10-17T06:40:05.003Z,16.20
2022-10-17T06:41:15.354Z,16.20
2022-10-17T06:42:19.180Z,16.20
2022-10-17T06:43:25.590Z,16.20
2022-10-17T06:44:31.846Z,16.20
2022-10-17T06:45:33.477Z,16.20
2022-10-17T06:46:35.286Z,16.30
2022-10-17T06:47:37.786Z,16.20
2022-10-17T06:48:41.667Z,16.20
2022-10-17T06:49:43.372Z,16.20
2022-10-17T06:50:45.120Z,16.20
2022-10-17T06:51:46.725Z,16.30
2022-10-17T06:52:53.051Z,16.30
2022-10-17T06:53:56.858Z,16.30
2022-10-17T06:54:58.550Z,16.30
2022-10-17T06:56:04.625Z,16.30
2022-10-17T06:57:06.382Z,16.30
2022-10-17T06:58:09.003Z,16.50
2022-10-17T06:59:11.017Z,16.30
2022-10-17T07:00:13.250Z,16.30
2022-10-17T07:01:14.875Z,16.30
2022-10-17T07:02:16.933Z,16.30
2022-10-17T07:03:18.539Z,16.30
2022-10-17T07:04:21.284Z,16.30
2022-10-17T07:05:23.172Z,16.30
2022-10-17T07:06:24.928Z,16.30
2022-10-17T07:07:26.660Z,16.30
2022-10-17T07:08:29.140Z,16.30
2022-10-17T07:09:31.653Z,16.30
2022-10-17T07:10:38.145Z,16.30
2022-10-17T07:11:40.203Z,16.30
2022-10-17T07:12:42.253Z,16.20
2022-10-17T07:13:44.234Z,16.20
2022-10-17T07:14:47.357Z,16.30
2022-10-17T07:15:51.958Z,16.30
2022-10-17T07:16:53.632Z,16.30
2022-10-17T07:17:55.297Z,16.30
2022-10-17T07:18:57.348Z,16.30
2022-10-17T07:19:59.158Z,16.30
2022-10-17T07:21:01.596Z,16.30
2022-10-17T07:22:05.018Z,16.30
2022-10-17T07:23:06.800Z,16.40
2022-10-17T07:24:08.504Z,16.40
2022-10-17T07:25:10.358Z,16.40
2022-10-17T07:26:14.705Z,16.40
2022-10-17T07:27:16.330Z,16.40
2022-10-17T07:28:19.714Z,16.50
2022-10-17T07:29:21.686Z,16.50
2022-10-17T07:30:25.389Z,16.50
2022-10-17T07:31:28.306Z,16.50
2022-10-17T07:32:30.364Z,16.50
2022-10-17T07:33:33.131Z,16.60
2022-10-17T07:34:38.021Z,16.60
2022-10-17T07:35:41.140Z,16.60
2022-10-17T07:36:43.014Z,16.60
2022-10-17T07:37:46.153Z,16.60
2022-10-17T07:38:47.872Z,16.60
2022-10-17T07:39:49.618Z,16.70
2022-10-17T07:40:59.044Z,16.70
2022-10-17T07:42:03.159Z,16.70
2022-10-17T07:43:04.925Z,16.80
2022-10-17T07:44:06.727Z,16.80
2022-10-17T07:45:09.126Z,16.80
2022-10-17T07:46:11.891Z,16.80
2022-10-17T07:47:14.761Z,16.90
2022-10-17T07:48:18.117Z,16.90
2022-10-17T07:49:24.818Z,16.90
2022-10-17T07:50:32.551Z,17.00
2022-10-17T07:51:39.233Z,17.00
2022-10-17T07:52:43.337Z,17.00
2022-10-17T07:53:48.687Z,17.00
2022-10-17T07:54:52.465Z,17.10
2022-10-17T07:55:54.420Z,17.10
2022-10-17T07:56:56.095Z,17.10
2022-10-17T07:58:00.729Z,17.10
2022-10-17T07:59:05.340Z,17.10
2022-10-17T08:00:10.744Z,17.10
2022-10-17T08:01:15.474Z,17.20
2022-10-17T08:02:25.784Z,17.20
2022-10-17T08:03:27.770Z,17.20
2022-10-17T08:04:30.927Z,17.30
2022-10-17T08:05:33.410Z,17.30
2022-10-17T08:06:35.218Z,17.40
2022-10-17T08:07:38.954Z,17.40
2022-10-17T08:08:41.106Z,17.40
2022-10-17T08:09:44.033Z,17.50
2022-10-17T08:10:45.636Z,17.50
2022-10-17T08:11:47.850Z,17.70
2022-10-17T08:12:49.495Z,17.50
2022-10-17T08:13:51.106Z,17.50
2022-10-17T08:14:53.020Z,17.50
2022-10-17T08:16:00.504Z,17.50
2022-10-17T08:17:02.352Z,17.80
2022-10-17T08:18:06.226Z,17.60
2022-10-17T08:20:12.779Z,17.60
2022-10-17T08:21:17.382Z,17.70
2022-10-17T08:22:19.249Z,17.70
2022-10-17T08:23:20.940Z,17.70
2022-10-17T08:24:22.990Z,17.70
2022-10-17T08:25:24.988Z,17.80
2022-10-17T08:26:27.636Z,17.80
2022-10-17T08:27:29.288Z,17.80
2022-10-17T08:28:30.977Z,17.80
2022-10-17T08:29:32.917Z,17.80
2022-10-17T08:30:34.660Z,17.90
2022-10-17T08:31:36.524Z,17.90
2022-10-17T08:32:38.249Z,18.10
2022-10-17T08:33:40.563Z,17.90
2022-10-17T08:34:42.207Z,18.10
2022-10-17T08:35:43.848Z,18.00
2022-10-17T08:36:45.466Z,18.10
2022-10-17T08:37:47.084Z,18.00
2022-10-17T08:38:52.956Z,18.10
2022-10-17T08:39:54.972Z,18.10
2022-10-17T08:41:16.845Z,18.10
2022-10-17T08:42:50.040Z,18.10
2022-10-17T08:44:19.586Z,18.20
2022-10-17T08:45:33.285Z,18.20
2022-10-17T08:46:40.225Z,18.20
2022-10-17T08:48:06.062Z,18.20
2022-10-17T08:49:15.386Z,18.30
2022-10-17T08:50:39.650Z,18.30
2022-10-17T08:51:51.595Z,18.30
2022-10-17T08:53:01.230Z,18.40
2022-10-17T08:54:21.167Z,18.40
2022-10-17T08:55:38.915Z,18.40
2022-10-17T08:56:49.759Z,18.50
2022-10-17T08:57:51.574Z,18.50
2022-10-17T08:58:53.464Z,18.50
2022-10-17T08:59:55.376Z,18.60
2022-10-17T09:01:14.297Z,18.60
2022-10-17T09:02:31.265Z,18.70
2022-10-17T09:04:05.300Z,18.70
2022-10-17T09:05:30.215Z,18.80
2022-10-17T09:06:52.062Z,18.80
2022-10-17T09:08:06.341Z,18.90
2022-10-17T09:09:25.651Z,18.90
2022-10-17T09:10:33.581Z,19.00
2022-10-17T09:12:12.581Z,19.00
2022-10-17T09:13:30.795Z,19.10
2022-10-17T09:15:10.669Z,19.10
2022-10-17T09:16:44.744Z,19.20
2022-10-17T09:18:00.860Z,19.30
2022-10-17T09:19:15.763Z,19.30
2022-10-17T09:20:17.530Z,19.40
2022-10-17T09:21:42.805Z,19.40
2022-10-17T09:24:09.639Z,19.50
2022-10-17T09:25:19.649Z,19.50
2022-10-17T09:26:21.718Z,19.60
2022-10-17T09:27:25.587Z,19.60
2022-10-17T09:28:39.739Z,19.60
2022-10-17T09:29:44.297Z,19.60
2022-10-17T09:31:04.937Z,19.70
2022-10-17T09:32:18.127Z,19.70
2022-10-17T09:33:34.765Z,19.70
2022-10-17T09:34:44.183Z,19.70
2022-10-17T09:35:47.002Z,19.90
2022-10-17T09:36:48.631Z,19.80
2022-10-17T09:37:53.044Z,19.80
2022-10-17T09:39:00.834Z,19.80
2022-10-17T09:40:02.882Z,19.90
2022-10-17T09:41:19.946Z,19.90
2022-10-17T09:42:28.459Z,19.90
2022-10-17T09:43:30.307Z,19.90
2022-10-17T09:44:50.417Z,20.00
2022-10-17T09:46:07.341Z,20.00
2022-10-17T09:47:45.787Z,20.00
2022-10-17T09:48:54.009Z,20.10
2022-10-17T09:49:55.992Z,20.10
2022-10-17T09:51:14.970Z,20.10
2022-10-17T09:52:47.658Z,20.20
2022-10-17T09:53:59.773Z,20.20
2022-10-17T09:55:06.322Z,20.30
2022-10-17T09:56:16.173Z,20.30
2022-10-17T09:57:20.112Z,20.30
2022-10-17T09:58:22.638Z,20.50
2022-10-17T09:59:36.180Z,20.40
2022-10-17T10:00:49.062Z,20.40
2022-10-17T10:02:24.737Z,20.40
2022-10-17T10:03:27.292Z,20.40
2022-10-17T10:04:30.417Z,20.50
2022-10-17T10:05:35.616Z,20.50
2022-10-17T10:06:38.128Z,20.60
2022-10-17T10:07:39.855Z,20.60
2022-10-17T10:08:53.207Z,20.60
2022-10-17T10:09:55.563Z,20.60
2022-10-17T10:11:00.482Z,20.70
2022-10-17T10:12:15.498Z,20.70
2022-10-17T10:13:20.733Z,20.80
2022-10-17T10:14:36.969Z,20.80
2022-10-17T10:15:43.602Z,20.80
2022-10-17T10:16:47.049Z,20.90
2022-10-17T10:17:49.060Z,20.90
2022-10-17T10:18:51.734Z,21.00
2022-10-17T10:19:53.976Z,21.00
2022-10-17T10:21:12.818Z,21.10
2022-10-17T10:22:19.419Z,21.10
2022-10-17T10:23:22.744Z,21.10
2022-10-17T10:24:30.630Z,21.10
2022-10-17T10:25:33.421Z,21.20
2022-10-17T10:26:47.204Z,21.20
2022-10-17T10:27:48.893Z,21.20
2022-10-17T10:29:03.141Z,21.30
2022-10-17T10:30:05.502Z,21.30
2022-10-17T10:31:09.398Z,21.30
2022-10-17T10:32:10.996Z,21.40
2022-10-17T10:33:12.992Z,21.40
2022-10-17T10:34:31.261Z,21.40
2022-10-17T10:35:37.114Z,21.40
2022-10-17T10:36:45.139Z,21.40
2022-10-17T10:37:51.204Z,21.50
2022-10-17T10:38:57.139Z,21.50
2022-10-17T10:40:23.829Z,21.50
2022-10-17T10:41:27.752Z,21.60
2022-10-17T10:42:32.700Z,21.60
2022-10-17T10:43:47.167Z,21.60
2022-10-17T10:44:50.324Z,21.60
2022-10-17T10:45:53.420Z,21.60
2022-10-17T10:47:26.051Z,21.70
2022-10-17T10:48:35.241Z,21.70
2022-10-17T10:49:39.278Z,21.70
2022-10-17T10:50:45.964Z,21.80
2022-10-17T10:51:49.499Z,21.80
2022-10-17T10:53:13.553Z,21.80
2022-10-17T10:54:26.440Z,21.80
2022-10-17T10:55:34.484Z,21.90
2022-10-17T10:56:44.038Z,21.90
2022-10-17T10:57:47.565Z,21.90
2022-10-17T10:58:57.604Z,22.00
2022-10-17T11:00:08.637Z,22.00
2022-10-17T11:01:40.154Z,22.00
2022-10-17T11:03:18.633Z,22.10
2022-10-17T11:04:48.481Z,22.10
2022-10-17T11:05:57.628Z,22.10
2022-10-17T11:07:08.597Z,22.20
2022-10-17T11:08:31.604Z,22.20
2022-10-17T11:09:37.361Z,22.20
2022-10-17T11:10:53.461Z,22.20
2022-10-17T11:12:06.981Z,22.30
2022-10-17T11:13:17.731Z,22.30
2022-10-17T11:14:43.919Z,22.30
2022-10-17T11:16:16.220Z,22.30
2022-10-17T11:17:40.330Z,22.30
2022-10-17T11:18:47.218Z,22.40
2022-10-17T11:20:11.420Z,22.40
2022-10-17T11:21:23.512Z,22.40
2022-10-17T11:22:36.496Z,22.40
2022-10-17T11:23:47.492Z,22.40
2022-10-17T11:24:57.100Z,22.50
2022-10-17T11:26:03.590Z,22.50
2022-10-17T11:27:07.208Z,22.50
2022-10-17T11:28:16.120Z,22.60
2022-10-17T11:29:17.801Z,22.60
2022-10-17T11:30:19.983Z,22.80
2022-10-17T11:31:28.959Z,22.80
2022-10-17T11:32:54.195Z,22.70
2022-10-17T11:34:10.189Z,22.70
2022-10-17T11:35:26.374Z,22.80
2022-10-17T11:36:36.221Z,22.80
2022-10-17T11:37:48.293Z,22.90
2022-10-17T11:39:10.071Z,22.90
2022-10-17T11:40:23.629Z,23.00
2022-10-17T11:41:41.491Z,23.00
2022-10-17T11:43:02.639Z,23.10
2022-10-17T11:44:07.150Z,23.10
2022-10-17T11:45:19.395Z,23.00
2022-10-17T11:46:28.324Z,23.20
2022-10-17T11:47:46.178Z,23.20
2022-10-17T11:48:50.551Z,23.30
2022-10-17T11:49:58.485Z,23.30
2022-10-17T11:52:55.553Z,23.30
2022-10-17T11:54:15.046Z,23.40
2022-10-17T11:55:26.854Z,23.40
2022-10-17T11:56:48.679Z,23.50
2022-10-17T11:58:03.702Z,23.60
2022-10-17T11:59:25.721Z,23.60
2022-10-17T12:01:07.466Z,23.70
2022-10-17T12:02:18.702Z,23.70
2022-10-17T12:03:46.249Z,23.80
2022-10-17T12:05:16.606Z,23.80
2022-10-17T12:06:32.218Z,24.00
2022-10-17T12:08:02.850Z,24.10
2022-10-17T12:09:34.079Z,24.20
2022-10-17T12:11:01.623Z,24.30
2022-10-17T12:12:04.135Z,24.40
2022-10-17T12:13:27.393Z,24.50
2022-10-17T12:14:44.062Z,24.60
2022-10-17T12:15:46.726Z,24.70
2022-10-17T12:16:48.853Z,24.70
2022-10-17T12:18:02.475Z,24.80
2022-10-17T12:19:06.472Z,24.90
2022-10-17T12:20:27.250Z,24.90
2022-10-17T12:21:49.662Z,25.00
2022-10-17T12:22:55.704Z,25.10
2022-10-17T12:23:57.346Z,25.20
2022-10-17T12:25:02.904Z,25.20
2022-10-17T12:26:07.790Z,25.30
2022-10-17T12:27:33.386Z,25.30
2022-10-17T12:28:37.905Z,25.40
2022-10-17T12:29:40.072Z,25.40
2022-10-17T12:31:09.928Z,25.40
2022-10-17T12:32:12.775Z,25.50
2022-10-17T12:33:31.012Z,25.60
2022-10-17T12:34:32.715Z,25.60
2022-10-17T12:35:36.580Z,25.60
2022-10-17T12:36:40.387Z,25.60
2022-10-17T12:37:51.084Z,25.70
2022-10-17T12:39:16.109Z,25.70
2022-10-17T12:40:36.203Z,25.80
2022-10-17T12:41:40.963Z,25.80
2022-10-17T12:42:49.002Z,25.80
2022-10-17T12:43:54.982Z,26.00
2022-10-17T12:44:56.861Z,25.90
2022-10-17T12:46:03.668Z,25.90
2022-10-17T12:47:05.234Z,25.90
2022-10-17T12:48:11.299Z,25.90
2022-10-17T12:49:51.094Z,26.00
2022-10-17T12:51:31.125Z,26.00
2022-10-17T12:52:34.956Z,26.00
2022-10-17T12:53:47.025Z,26.00
2022-10-17T12:55:10.894Z,26.10
2022-10-17T12:56:17.054Z,26.10
2022-10-17T12:57:34.038Z,26.10
2022-10-17T12:58:36.564Z,26.10
2022-10-17T12:59:43.264Z,26.10
2022-10-17T13:01:18.960Z,26.10
2022-10-17T13:02:22.301Z,26.20
2022-10-17T13:03:30.432Z,26.20
2022-10-17T13:04:36.189Z,26.20
2022-10-17T13:05:45.281Z,26.30
2022-10-17T13:06:49.422Z,26.30
2022-10-17T13:07:53.012Z,26.30
2022-10-17T13:09:04.317Z,26.30
2022-10-17T13:10:19.435Z,26.30
2022-10-17T13:11:25.772Z,26.30
2022-10-17T13:12:28.433Z,26.40
2022-10-17T13:13:49.718Z,26.40
2022-10-17T13:14:53.719Z,26.40
2022-10-17T13:15:55.750Z,26.50
2022-10-17T13:17:02.627Z,26.50
2022-10-17T13:18:05.048Z,26.50
2022-10-17T13:19:23.034Z,26.50
2022-10-17T13:20:31.290Z,26.50
2022-10-17T13:21:33.587Z,26.60
2022-10-17T13:22:35.307Z,26.60
2022-10-17T13:23:37.935Z,26.60
2022-10-17T13:24:41.289Z,26.60
2022-10-17T13:25:42.952Z,26.70
2022-10-17T13:26:46.080Z,26.60
2022-10-17T13:27:49.304Z,26.70
2022-10-17T13:29:15.778Z,26.60
2022-10-17T13:30:30.929Z,26.60
2022-10-17T13:31:37.454Z,26.60
2022-10-17T13:32:40.738Z,26.50
2022-10-17T13:33:42.442Z,26.50
2022-10-17T13:34:45.284Z,26.50
2022-10-17T13:36:00.086Z,26.50
2022-10-17T13:37:05.777Z,26.50
2022-10-17T13:38:08.830Z,26.40
2022-10-17T13:39:17.199Z,26.50
2022-10-17T13:40:44.391Z,26.50
2022-10-17T13:41:53.953Z,26.60
2022-10-17T13:42:57.400Z,26.60
2022-10-17T13:43:59.352Z,26.60
2022-10-17T13:45:01.349Z,26.60
2022-10-17T13:46:25.378Z,26.60
2022-10-17T13:47:30.446Z,26.50
2022-10-17T13:48:37.686Z,26.60
2022-10-17T13:49:43.006Z,26.60
2022-10-17T13:50:50.135Z,26.70
2022-10-17T13:51:54.853Z,26.70
2022-10-17T13:53:24.275Z,26.70
2022-10-17T13:54:42.247Z,26.70
2022-10-17T13:56:09.768Z,26.70
2022-10-17T13:57:21.445Z,26.80
2022-10-17T13:58:23.957Z,26.70
2022-10-17T13:59:32.272Z,26.70
2022-10-17T14:00:34.003Z,26.70
2022-10-17T14:01:37.789Z,26.70
2022-10-17T14:02:42.462Z,26.70
2022-10-17T14:03:48.601Z,26.70
2022-10-17T14:05:20.475Z,26.80
2022-10-17T14:06:29.185Z,26.80
2022-10-17T14:08:11.990Z,26.90
2022-10-17T14:09:23.336Z,26.90
2022-10-17T14:10:33.813Z,26.90
2022-10-17T14:11:41.008Z,26.90
2022-10-17T14:12:43.012Z,26.90
2022-10-17T14:13:57.644Z,27.00
2022-10-17T14:15:11.189Z,27.00
2022-10-17T14:16:13.149Z,27.00
2022-10-17T14:17:21.515Z,27.10
2022-10-17T14:18:31.986Z,27.20
2022-10-17T14:19:38.536Z,27.20
2022-10-17T14:21:28.779Z,27.30
2022-10-17T14:22:18.178Z,27.30
2022-10-17T14:23:30.550Z,27.40
2022-10-17T14:24:35.625Z,27.40
2022-10-17T14:25:41.077Z,27.50
2022-10-17T14:26:54.247Z,27.50
2022-10-17T14:28:18.386Z,27.50
2022-10-17T14:29:25.080Z,27.60
2022-10-17T14:30:51.720Z,27.70
2022-10-17T14:31:50.559Z,27.70
2022-10-17T14:32:57.015Z,27.80
2022-10-17T14:34:01.026Z,27.80
2022-10-17T14:35:30.301Z,27.90
2022-10-17T14:36:33.193Z,27.90